Terminal Aerodrome Forecast
Issued by NWS Binghamton, NY

Home | Current Version | Previous Version | Text Only | Print | Product List | Glossary On
Versions: 1 2 3 4 5 6 7 8 9 10 11 12 13 14 15 16
800
FTUS41 KBGM 190906 AAA
TAFAVP
TAF AMD
KAVP 190906Z 1909/2006 22004KT P6SM SKC
     FM191400 24008KT P6SM SCT150
     FM192300 22005KT P6SM SCT150=

USA.gov is the U.S. government's official web portal to all federal, state and local government web resources and services.